createdAt,value
2023-01-03T00:01:32.422Z,55.46
2023-01-03T00:04:00.593Z,55.42
2023-01-03T00:06:41.235Z,55.63
2023-01-03T00:09:12.204Z,55.58
2023-01-03T00:11:58.758Z,55.62
2023-01-03T00:14:31.162Z,55.77
2023-01-03T00:16:59.788Z,55.53
2023-01-03T00:19:29.661Z,55.61
2023-01-03T00:21:58.011Z,55.43
2023-01-03T00:24:25.104Z,55.34
2023-01-03T00:26:52.124Z,55.59
2023-01-03T00:29:19.997Z,55.74
2023-01-03T00:31:48.864Z,55.88
2023-01-03T00:34:16.137Z,55.76
2023-01-03T00:36:46.052Z,55.55
2023-01-03T00:39:13.185Z,55.85
2023-01-03T00:41:43.615Z,56.11
2023-01-03T00:44:15.149Z,56.17
2023-01-03T00:46:42.565Z,55.88
2023-01-03T00:49:10.401Z,56.23
2023-01-03T00:51:43.296Z,56.40
2023-01-03T00:54:12.785Z,56.07
2023-01-03T00:56:43.495Z,56.24
2023-01-03T01:02:29.425Z,56.56
2023-01-03T01:05:02.036Z,56.28
2023-01-03T01:07:32.484Z,56.44
2023-01-03T01:10:05.119Z,56.10
2023-01-03T01:12:32.300Z,56.19
2023-01-03T01:15:02.312Z,56.06
2023-01-03T01:17:37.122Z,56.09
2023-01-03T01:20:15.463Z,55.97
2023-01-03T01:22:48.554Z,55.99
2023-01-03T01:25:18.619Z,55.92
2023-01-03T01:27:51.572Z,56.32
2023-01-03T01:30:26.590Z,55.93
2023-01-03T01:32:59.170Z,55.72
2023-01-03T01:35:33.792Z,55.65
2023-01-03T01:38:05.761Z,55.63
2023-01-03T01:40:39.230Z,55.74
2023-01-03T01:43:38.480Z,55.77
2023-01-03T01:46:24.555Z,55.78
2023-01-03T01:49:06.255Z,55.48
2023-01-03T01:51:36.282Z,55.50
2023-01-03T01:54:09.938Z,55.23
2023-01-03T01:57:06.939Z,55.33
2023-01-03T02:00:03.283Z,55.15
2023-01-03T02:02:32.982Z,55.21
2023-01-03T02:05:03.725Z,55.11
2023-01-03T02:07:31.676Z,54.80
2023-01-03T02:09:59.199Z,54.85
2023-01-03T02:13:03.702Z,54.69
2023-01-03T02:15:40.863Z,54.47
2023-01-03T02:18:35.131Z,54.51
2023-01-03T02:21:20.510Z,54.38
2023-01-03T02:23:47.663Z,54.70
2023-01-03T02:26:20.681Z,54.62
2023-01-03T02:29:05.000Z,54.56
2023-01-03T02:31:44.486Z,54.48
2023-01-03T02:34:44.154Z,54.68
2023-01-03T02:37:19.083Z,54.45
2023-01-03T02:39:55.957Z,54.36
2023-01-03T02:42:48.644Z,54.57
2023-01-03T02:45:21.264Z,54.33
2023-01-03T02:48:11.415Z,54.41
2023-01-03T02:50:49.719Z,54.35
2023-01-03T02:53:20.119Z,54.35
2023-01-03T02:55:53.451Z,54.43
2023-01-03T02:58:26.271Z,54.21
2023-01-03T03:00:56.301Z,54.08
2023-01-03T03:03:35.061Z,53.39
2023-01-03T03:06:12.662Z,53.36
2023-01-03T03:08:39.884Z,53.46
2023-01-03T03:11:26.059Z,53.55
2023-01-03T03:14:03.239Z,53.36
2023-01-03T03:16:59.901Z,52.93
2023-01-03T03:19:49.726Z,53.02
2023-01-03T03:22:54.623Z,52.84
2023-01-03T03:25:35.455Z,52.74
2023-01-03T03:28:28.508Z,52.69
2023-01-03T03:30:58.847Z,52.78
2023-01-03T03:33:32.033Z,52.67
2023-01-03T03:36:17.733Z,52.62
2023-01-03T03:38:48.606Z,52.46
2023-01-03T03:41:35.511Z,52.52
2023-01-03T03:44:46.948Z,52.60
2023-01-03T03:47:40.509Z,52.98
2023-01-03T03:50:19.590Z,52.61
2023-01-03T03:52:56.671Z,52.92
2023-01-03T03:55:38.017Z,52.87
2023-01-03T03:58:19.581Z,52.40
2023-01-03T04:00:51.414Z,52.34
2023-01-03T04:03:25.568Z,52.55
2023-01-03T04:06:00.494Z,52.61
2023-01-03T04:08:27.893Z,52.76
2023-01-03T04:11:05.994Z,53.52
2023-01-03T04:13:39.381Z,54.17
2023-01-03T04:16:07.372Z,54.99
2023-01-03T04:18:35.343Z,54.97
2023-01-03T04:21:02.381Z,54.93
2023-01-03T04:23:29.478Z,55.08
2023-01-03T04:25:56.732Z,55.75
2023-01-03T04:28:27.037Z,55.70
2023-01-03T04:30:58.732Z,55.86
2023-01-03T04:33:28.800Z,55.77
2023-01-03T04:35:57.498Z,56.39
2023-01-03T04:38:33.894Z,56.20
2023-01-03T04:41:08.029Z,56.25
2023-01-03T04:43:54.491Z,56.39
2023-01-03T04:46:22.039Z,56.50
2023-01-03T04:48:49.442Z,57.05
2023-01-03T04:51:16.986Z,57.52
2023-01-03T04:53:47.103Z,57.97
2023-01-03T04:56:14.098Z,57.98
2023-01-03T04:58:44.915Z,57.87
2023-01-03T05:01:12.157Z,58.10
2023-01-03T05:03:42.347Z,58.23
2023-01-03T05:06:12.783Z,58.43
2023-01-03T05:08:40.588Z,58.27
2023-01-03T05:11:11.082Z,58.06
2023-01-03T05:13:40.934Z,58.06
2023-01-03T05:16:10.696Z,57.90
2023-01-03T05:18:41.174Z,57.99
2023-01-03T05:21:27.926Z,58.45
2023-01-03T05:24:16.939Z,58.36
2023-01-03T05:26:44.507Z,58.28
2023-01-03T05:29:18.723Z,58.39
2023-01-03T05:31:47.354Z,58.60
2023-01-03T05:34:18.440Z,58.76
2023-01-03T05:36:48.675Z,59.12
2023-01-03T05:39:18.686Z,59.11
2023-01-03T05:42:02.705Z,59.22
2023-01-03T05:44:33.576Z,59.40
2023-01-03T05:47:04.836Z,59.32
2023-01-03T05:49:37.019Z,59.56
2023-01-03T05:52:04.357Z,59.66
2023-01-03T05:54:38.713Z,59.62
2023-01-03T05:57:11.876Z,59.86
2023-01-03T05:59:42.514Z,59.47
2023-01-03T06:02:17.180Z,59.61
2023-01-03T06:04:45.058Z,59.16
2023-01-03T06:07:18.420Z,59.74
2023-01-03T06:09:49.117Z,59.09
2023-01-03T06:12:21.977Z,59.64
2023-01-03T06:14:50.872Z,59.44
2023-01-03T06:17:46.300Z,59.34
2023-01-03T06:20:17.119Z,59.40
2023-01-03T06:22:53.201Z,58.92
2023-01-03T06:25:26.788Z,59.65
2023-01-03T06:27:59.205Z,59.55
2023-01-03T06:30:29.681Z,59.60
2023-01-03T06:33:07.835Z,59.89
2023-01-03T06:35:43.776Z,59.82
2023-01-03T06:38:11.368Z,59.93
2023-01-03T06:40:45.415Z,60.05
2023-01-03T06:43:28.046Z,60.17
2023-01-03T06:46:21.111Z,59.51
2023-01-03T06:49:09.929Z,59.51
2023-01-03T06:51:56.329Z,59.20
2023-01-03T06:54:28.604Z,59.22
2023-01-03T06:57:01.320Z,58.75
2023-01-03T06:59:36.032Z,58.81
2023-01-03T07:02:08.489Z,58.80
2023-01-03T07:04:39.475Z,59.10
2023-01-03T07:07:09.642Z,58.81
2023-01-03T07:09:37.232Z,58.94
2023-01-03T07:12:27.154Z,58.81
2023-01-03T07:14:56.857Z,58.87
2023-01-03T07:17:24.196Z,58.26
2023-01-03T07:19:51.915Z,58.51
2023-01-03T07:22:19.583Z,58.42
2023-01-03T07:24:50.915Z,58.38
2023-01-03T07:27:27.250Z,58.52
2023-01-03T07:29:57.561Z,58.43
2023-01-03T07:32:25.177Z,58.61
2023-01-03T07:34:54.925Z,58.36
2023-01-03T07:37:25.179Z,58.39
2023-01-03T07:39:52.498Z,58.04
2023-01-03T07:42:39.046Z,58.15
2023-01-03T07:45:06.886Z,57.84
2023-01-03T07:47:34.496Z,57.75
2023-01-03T07:50:01.936Z,57.57
2023-01-03T07:52:35.414Z,57.64
2023-01-03T07:55:08.674Z,57.59
2023-01-03T07:57:38.904Z,57.66
2023-01-03T08:00:06.410Z,57.63
2023-01-03T08:02:39.525Z,57.47
2023-01-03T08:05:07.124Z,57.30
2023-01-03T08:07:37.275Z,57.18
2023-01-03T08:10:25.256Z,56.80
2023-01-03T08:13:13.923Z,56.72
2023-01-03T08:15:43.422Z,56.24
2023-01-03T08:18:10.488Z,55.90
2023-01-03T08:20:40.028Z,55.86
2023-01-03T08:23:07.164Z,56.11
2023-01-03T08:25:35.494Z,55.83
2023-01-03T08:28:05.645Z,55.16
2023-01-03T08:30:33.297Z,55.87
2023-01-03T08:33:03.241Z,55.18
2023-01-03T08:35:33.748Z,55.71
2023-01-03T08:38:02.973Z,55.06
2023-01-03T08:40:36.735Z,55.43
2023-01-03T08:43:07.897Z,54.67
2023-01-03T08:45:35.170Z,54.89
2023-01-03T08:48:03.140Z,54.53
2023-01-03T08:50:36.025Z,54.06
2023-01-03T08:53:05.421Z,54.02
2023-01-03T08:55:37.569Z,54.09
2023-01-03T08:58:04.573Z,53.65
2023-01-03T09:00:31.649Z,53.59
2023-01-03T09:03:01.368Z,52.84
2023-01-03T09:05:37.340Z,53.38
2023-01-03T09:08:09.905Z,53.21
2023-01-03T09:10:47.657Z,53.30
2023-01-03T09:13:18.145Z,52.78
2023-01-03T09:15:45.326Z,52.39
2023-01-03T09:18:13.018Z,52.79
2023-01-03T09:20:40.298Z,52.87
2023-01-03T09:23:07.757Z,52.62
2023-01-03T09:25:39.051Z,52.48
2023-01-03T09:28:06.305Z,52.20
2023-01-03T09:30:44.282Z,52.07
2023-01-03T09:33:11.914Z,52.16
2023-01-03T09:35:39.458Z,51.97
2023-01-03T09:38:13.416Z,51.83
2023-01-03T09:40:41.969Z,51.96
2023-01-03T09:43:15.665Z,51.41
2023-01-03T09:45:52.134Z,51.47
2023-01-03T09:48:29.881Z,51.19
2023-01-03T09:51:18.309Z,51.43
2023-01-03T09:54:03.031Z,50.92
2023-01-03T09:56:52.811Z,50.95
2023-01-03T09:59:38.421Z,50.74
2023-01-03T10:02:30.628Z,50.81
2023-01-03T10:05:16.360Z,50.20
2023-01-03T10:07:52.587Z,49.92
2023-01-03T10:10:25.652Z,49.62
2023-01-03T10:13:02.926Z,49.37
2023-01-03T10:15:32.971Z,48.58
2023-01-03T10:18:15.413Z,48.02
2023-01-03T10:20:46.406Z,47.70
2023-01-03T10:23:13.657Z,47.22
2023-01-03T10:25:43.376Z,46.80
2023-01-03T10:28:13.129Z,46.39
2023-01-03T10:30:58.320Z,46.17
2023-01-03T10:33:39.492Z,46.64
2023-01-03T10:36:08.495Z,47.04
2023-01-03T10:38:43.529Z,47.37
2023-01-03T10:41:20.560Z,47.34
2023-01-03T10:44:03.802Z,47.15
2023-01-03T10:46:32.035Z,47.17
2023-01-03T10:49:27.077Z,46.83
2023-01-03T10:52:16.339Z,46.93
2023-01-03T10:54:51.987Z,46.98
2023-01-03T10:57:36.435Z,46.12
2023-01-03T11:00:23.848Z,46.39
2023-01-03T11:02:51.582Z,45.99
2023-01-03T11:05:20.649Z,45.42
2023-01-03T11:07:58.258Z,45.40
2023-01-03T11:10:31.106Z,45.52
2023-01-03T11:12:59.235Z,44.91
2023-01-03T11:15:38.798Z,44.83
2023-01-03T11:18:18.586Z,44.84
2023-01-03T11:21:04.352Z,44.11
2023-01-03T11:23:37.562Z,43.79
2023-01-03T11:26:27.959Z,43.79
2023-01-03T11:29:15.127Z,43.61
2023-01-03T11:31:50.805Z,43.28
2023-01-03T11:34:27.294Z,43.59
2023-01-03T11:37:17.754Z,43.72
2023-01-03T11:40:01.768Z,43.31
2023-01-03T11:42:45.554Z,43.41
2023-01-03T11:45:24.738Z,43.06
2023-01-03T11:47:57.752Z,43.52
2023-01-03T11:50:28.091Z,43.38
2023-01-03T11:53:21.351Z,42.76
2023-01-03T11:56:07.380Z,42.56
2023-01-03T11:58:53.278Z,40.92
2023-01-03T12:01:42.923Z,38.78
2023-01-03T12:04:16.146Z,36.95
2023-01-03T12:06:49.403Z,35.61
2023-01-03T12:09:25.958Z,34.87
2023-01-03T12:11:55.024Z,34.57
2023-01-03T12:14:27.248Z,34.11
2023-01-03T12:16:57.359Z,34.50
2023-01-03T12:19:39.659Z,34.28
2023-01-03T12:22:06.674Z,33.93
2023-01-03T12:24:33.577Z,34.29
2023-01-03T12:27:21.107Z,34.13
2023-01-03T12:29:57.523Z,33.68
2023-01-03T12:32:43.207Z,33.15
2023-01-03T12:35:28.770Z,32.18
2023-01-03T12:37:59.444Z,31.94
2023-01-03T12:40:28.595Z,30.67
2023-01-03T12:43:02.065Z,30.29
2023-01-03T12:45:41.354Z,29.70
2023-01-03T12:48:11.430Z,30.34
2023-01-03T12:50:51.761Z,30.27
2023-01-03T12:53:34.078Z,30.49
2023-01-03T12:56:36.722Z,30.44
2023-01-03T12:59:10.693Z,30.56
2023-01-03T13:01:37.891Z,29.62
2023-01-03T13:04:12.902Z,29.24
2023-01-03T13:06:50.444Z,29.67
2023-01-03T13:09:21.414Z,30.02
2023-01-03T13:11:53.828Z,30.90
2023-01-03T13:14:22.652Z,30.15
2023-01-03T13:16:50.830Z,29.70
2023-01-03T13:19:20.634Z,29.19
2023-01-03T13:21:53.679Z,29.51
2023-01-03T13:24:42.583Z,29.99
2023-01-03T13:27:21.095Z,30.76
2023-01-03T13:29:50.780Z,31.33
2023-01-03T13:32:20.861Z,31.25
2023-01-03T13:34:59.447Z,31.57
2023-01-03T13:37:29.895Z,32.90
2023-01-03T13:40:17.461Z,32.94
2023-01-03T13:42:44.817Z,34.63
2023-01-03T13:45:11.736Z,34.48
2023-01-03T13:47:41.306Z,35.12
2023-01-03T13:50:28.539Z,35.43
2023-01-03T13:53:00.534Z,38.62
2023-01-03T13:55:41.358Z,39.62
2023-01-03T13:58:27.447Z,39.48
2023-01-03T14:01:05.563Z,40.32
2023-01-03T14:03:51.130Z,40.32
2023-01-03T14:06:40.303Z,40.66
2023-01-03T14:09:32.443Z,40.93
2023-01-03T14:12:28.236Z,40.95
2023-01-03T14:14:56.963Z,41.33
2023-01-03T14:17:33.357Z,41.79
2023-01-03T14:20:06.314Z,41.99
2023-01-03T14:22:41.239Z,41.37
2023-01-03T14:25:12.088Z,41.55
2023-01-03T14:27:41.761Z,40.94
2023-01-03T14:30:28.683Z,40.08
2023-01-03T14:32:55.720Z,39.68
2023-01-03T14:35:36.609Z,38.71
2023-01-03T14:38:07.580Z,38.41
2023-01-03T14:40:34.816Z,36.90
2023-01-03T14:43:05.304Z,36.63
2023-01-03T14:45:32.369Z,35.48
2023-01-03T14:47:59.477Z,35.40
2023-01-03T14:50:30.532Z,35.10
2023-01-03T14:53:01.627Z,34.91
2023-01-03T14:55:31.036Z,34.16
2023-01-03T14:58:00.417Z,34.29
2023-01-03T15:00:33.211Z,34.20
2023-01-03T15:03:04.897Z,34.46
2023-01-03T15:05:32.080Z,34.18
2023-01-03T15:08:09.101Z,34.67
2023-01-03T15:10:59.978Z,33.92
2023-01-03T15:13:30.197Z,36.35
2023-01-03T15:15:59.179Z,36.63
2023-01-03T15:18:29.908Z,38.08
2023-01-03T15:21:00.993Z,37.95
2023-01-03T15:23:48.522Z,37.52
2023-01-03T15:26:41.071Z,39.19
2023-01-03T15:29:15.482Z,40.45
2023-01-03T15:31:58.985Z,39.25
2023-01-03T15:34:35.201Z,40.57
2023-01-03T15:37:18.158Z,40.69
2023-01-03T15:39:53.075Z,41.37
2023-01-03T15:42:58.522Z,41.22
2023-01-03T15:45:39.493Z,41.70
2023-01-03T15:48:20.406Z,42.05
2023-01-03T15:51:03.285Z,42.03
2023-01-03T15:53:46.575Z,41.75
2023-01-03T15:59:34.693Z,42.37
2023-01-03T16:02:13.060Z,43.83
2023-01-03T16:04:49.804Z,44.26
2023-01-03T16:07:17.146Z,45.46
2023-01-03T16:09:44.525Z,44.95
2023-01-03T16:15:05.652Z,47.00
2023-01-03T16:17:33.388Z,48.14
2023-01-03T16:20:01.408Z,49.08
2023-01-03T16:22:35.447Z,49.13
2023-01-03T16:25:12.331Z,48.27
2023-01-03T16:27:39.602Z,49.15
2023-01-03T16:30:13.618Z,48.91
2023-01-03T16:32:43.714Z,48.71
2023-01-03T16:35:18.654Z,48.47
2023-01-03T16:37:48.758Z,47.81
2023-01-03T16:40:17.793Z,48.59
2023-01-03T16:42:53.236Z,48.57
2023-01-03T16:45:20.910Z,49.87
2023-01-03T16:47:52.197Z,49.36
2023-01-03T16:50:22.150Z,49.26
2023-01-03T16:52:55.266Z,49.63
2023-01-03T16:55:37.570Z,50.21
2023-01-03T16:58:19.909Z,50.10
2023-01-03T17:00:47.628Z,51.27
2023-01-03T17:03:17.931Z,51.62
2023-01-03T17:05:45.397Z,51.45
2023-01-03T17:08:38.915Z,51.20
2023-01-03T17:11:12.212Z,50.97
2023-01-03T17:13:46.876Z,51.49
2023-01-03T17:16:29.316Z,51.29
2023-01-03T17:19:08.360Z,51.15
2023-01-03T17:21:51.336Z,51.70
2023-01-03T17:24:36.182Z,50.96
2023-01-03T17:27:05.274Z,51.09
2023-01-03T17:29:38.908Z,50.98
2023-01-03T17:32:31.881Z,50.47
2023-01-03T17:35:02.260Z,50.61
2023-01-03T17:38:14.307Z,50.11
2023-01-03T17:40:51.572Z,49.37
2023-01-03T17:43:27.585Z,49.72
2023-01-03T17:46:23.155Z,49.54
2023-01-03T17:49:15.500Z,49.33
2023-01-03T17:51:49.615Z,49.51
2023-01-03T17:54:20.329Z,48.95
2023-01-03T17:56:50.010Z,46.70
2023-01-03T17:59:17.905Z,47.42
2023-01-03T18:01:45.311Z,47.38
2023-01-03T18:04:50.053Z,46.88
2023-01-03T18:07:21.417Z,45.03
2023-01-03T18:09:56.158Z,44.86
2023-01-03T18:12:37.265Z,44.74
2023-01-03T18:15:07.189Z,44.66
2023-01-03T18:17:37.569Z,44.82
2023-01-03T18:20:06.021Z,44.85
2023-01-03T18:22:33.535Z,45.05
2023-01-03T18:25:01.084Z,45.12
2023-01-03T18:27:31.203Z,45.41
2023-01-03T18:30:01.829Z,45.58
2023-01-03T18:32:30.438Z,45.58
2023-01-03T18:35:01.449Z,46.15
2023-01-03T18:37:36.303Z,45.98
2023-01-03T18:40:15.837Z,45.72
2023-01-03T18:43:02.160Z,45.67
2023-01-03T18:45:32.026Z,46.08
2023-01-03T18:48:03.128Z,46.55
2023-01-03T18:50:35.976Z,46.55
2023-01-03T18:53:06.169Z,46.24
2023-01-03T18:55:39.538Z,46.83
2023-01-03T18:58:23.603Z,46.53
2023-01-03T19:00:54.001Z,46.99
2023-01-03T19:03:28.530Z,46.75
2023-01-03T19:05:56.817Z,46.99
2023-01-03T19:08:25.251Z,47.13
2023-01-03T19:10:53.384Z,46.93
2023-01-03T19:13:28.143Z,47.05
2023-01-03T19:15:57.272Z,47.08
2023-01-03T19:18:25.188Z,47.12
2023-01-03T19:20:53.056Z,47.30
2023-01-03T19:23:29.100Z,47.20
2023-01-03T19:25:57.165Z,47.40
2023-01-03T19:28:25.682Z,47.35
2023-01-03T19:30:55.834Z,47.66
2023-01-03T19:33:23.543Z,47.66
2023-01-03T19:35:52.933Z,47.25
2023-01-03T19:38:24.402Z,47.42
2023-01-03T19:40:57.041Z,47.46
2023-01-03T19:43:33.939Z,47.73
2023-01-03T19:46:01.977Z,47.66
2023-01-03T19:48:32.387Z,48.04
2023-01-03T19:51:01.284Z,47.70
2023-01-03T19:53:28.922Z,47.67
2023-01-03T19:55:59.623Z,47.92
2023-01-03T19:58:35.368Z,47.92
2023-01-03T20:01:03.546Z,48.16
2023-01-03T20:03:41.113Z,48.01
2023-01-03T20:06:16.580Z,47.80
2023-01-03T20:08:47.549Z,47.62
2023-01-03T20:11:25.425Z,47.65
2023-01-03T20:13:54.104Z,47.55
2023-01-03T20:16:24.195Z,47.67
2023-01-03T20:18:54.158Z,47.66
2023-01-03T20:21:26.788Z,47.63
2023-01-03T20:23:58.590Z,47.33
2023-01-03T20:26:30.147Z,47.57
2023-01-03T20:29:00.509Z,47.47
2023-01-03T20:31:28.025Z,47.34
2023-01-03T20:33:56.363Z,47.30
2023-01-03T20:36:28.795Z,47.27
2023-01-03T20:39:01.887Z,47.48
2023-01-03T20:41:37.000Z,47.11
2023-01-03T20:46:55.577Z,47.03
2023-01-03T20:49:35.259Z,46.95
2023-01-03T20:52:07.238Z,47.49
2023-01-03T20:54:36.685Z,47.42
2023-01-03T20:57:14.377Z,47.37
2023-01-03T20:59:43.005Z,47.32
2023-01-03T21:02:11.622Z,47.51
2023-01-03T21:04:42.093Z,47.14
2023-01-03T21:07:18.478Z,47.27
2023-01-03T21:09:50.399Z,47.40
2023-01-03T21:12:17.869Z,47.29
2023-01-03T21:14:45.931Z,47.24
2023-01-03T21:17:14.366Z,47.51
2023-01-03T21:19:41.672Z,47.30
2023-01-03T21:22:21.297Z,47.38
2023-01-03T21:24:55.673Z,47.59
2023-01-03T21:27:27.368Z,47.81
2023-01-03T21:29:57.385Z,46.87
2023-01-03T21:32:27.080Z,47.37
2023-01-03T21:34:54.979Z,47.42
2023-01-03T21:37:22.993Z,47.52
2023-01-03T21:39:49.992Z,47.36
2023-01-03T21:42:35.777Z,47.53
2023-01-03T21:45:05.214Z,47.49
2023-01-03T21:47:35.253Z,47.44
2023-01-03T21:50:05.994Z,47.65
2023-01-03T21:52:36.663Z,47.51
2023-01-03T21:55:06.075Z,47.79
2023-01-03T21:57:34.380Z,47.65
2023-01-03T22:00:01.541Z,47.45
2023-01-03T22:02:59.872Z,47.70
2023-01-03T22:05:33.179Z,47.58
2023-01-03T22:08:07.876Z,48.05
2023-01-03T22:10:37.190Z,48.11
2023-01-03T22:13:09.497Z,48.03
2023-01-03T22:15:38.224Z,48.03
2023-01-03T22:18:09.236Z,48.08
2023-01-03T22:20:39.242Z,48.19
2023-01-03T22:23:08.670Z,48.21
2023-01-03T22:25:38.236Z,48.46
2023-01-03T22:28:08.134Z,48.32
2023-01-03T22:30:35.739Z,48.25
2023-01-03T22:33:08.904Z,48.39
2023-01-03T22:35:36.077Z,48.35
2023-01-03T22:38:06.007Z,48.07
2023-01-03T22:40:39.183Z,48.46
2023-01-03T22:43:11.267Z,48.69
2023-01-03T22:45:49.153Z,48.77
2023-01-03T22:48:30.678Z,48.58
2023-01-03T22:51:15.029Z,49.01
2023-01-03T22:54:00.720Z,48.74
2023-01-03T22:56:40.569Z,48.58
2023-01-03T22:59:08.422Z,48.98
2023-01-03T23:01:39.558Z,48.71
2023-01-03T23:04:07.048Z,48.87
2023-01-03T23:06:51.083Z,48.81
2023-01-03T23:09:21.130Z,49.29
2023-01-03T23:12:11.334Z,49.12
2023-01-03T23:14:40.854Z,48.80
2023-01-03T23:17:29.428Z,48.96
2023-01-03T23:20:04.218Z,48.85
2023-01-03T23:22:41.605Z,48.75
2023-01-03T23:25:16.548Z,49.30
2023-01-03T23:27:43.600Z,49.19
2023-01-03T23:30:19.373Z,49.17
2023-01-03T23:32:59.045Z,49.28
2023-01-03T23:35:28.824Z,49.64
2023-01-03T23:38:06.136Z,49.50
2023-01-03T23:40:41.882Z,49.62
2023-01-03T23:43:32.415Z,49.42
2023-01-03T23:46:34.822Z,49.57
2023-01-03T23:49:04.638Z,49.63
2023-01-03T23:51:37.856Z,49.99
2023-01-03T23:54:14.372Z,49.62
2023-01-03T23:56:44.547Z,49.89
2023-01-03T23:59:13.434Z,49.86
